createdAt,value
2016-11-16T00:00:34.487Z,21.5
2016-11-16T00:01:34.114Z,21.48
2016-11-16T00:02:34.057Z,21.51
2016-11-16T00:03:33.990Z,21.42
2016-11-16T00:04:33.930Z,21.45
2016-11-16T00:05:33.869Z,21.42
2016-11-16T00:06:33.832Z,21.39
2016-11-16T00:07:33.743Z,21.48
2016-11-16T00:08:33.677Z,21.46
2016-11-16T00:09:33.624Z,21.43
2016-11-16T00:10:33.552Z,21.42
2016-11-16T00:11:33.488Z,21.43
2016-11-16T00:12:33.426Z,21.45
2016-11-16T00:13:33.364Z,21.42
2016-11-16T00:14:33.305Z,21.5
2016-11-16T00:15:33.240Z,21.5
2016-11-16T00:16:33.501Z,21.42
2016-11-16T00:17:33.415Z,21.4
2016-11-16T00:18:33.049Z,21.43
2016-11-16T00:19:32.988Z,21.4
2016-11-16T00:20:32.927Z,21.42
2016-11-16T00:21:33.164Z,21.42
2016-11-16T00:22:32.797Z,21.48
2016-11-16T00:23:32.739Z,21.39
2016-11-16T00:24:32.669Z,21.42
2016-11-16T00:25:32.609Z,21.48
2016-11-16T00:26:32.544Z,21.5
2016-11-16T00:27:32.481Z,21.45
2016-11-16T00:28:32.724Z,21.48
2016-11-16T00:29:32.355Z,21.46
2016-11-16T00:30:32.290Z,21.5
2016-11-16T00:31:32.233Z,21.39
2016-11-16T00:32:32.176Z,21.45
2016-11-16T00:33:32.102Z,21.4
2016-11-16T00:34:32.071Z,21.46
2016-11-16T00:35:31.980Z,21.4
2016-11-16T00:36:31.917Z,21.45
2016-11-16T00:37:31.850Z,21.42
2016-11-16T00:38:31.788Z,21.45
2016-11-16T00:39:31.728Z,21.43
2016-11-16T00:40:31.667Z,21.42
2016-11-16T00:41:31.602Z,21.42
2016-11-16T00:42:31.852Z,21.48
2016-11-16T00:43:31.476Z,21.48
2016-11-16T00:44:31.414Z,21.43
2016-11-16T00:45:31.663Z,21.43
2016-11-16T00:46:31.293Z,21.39
2016-11-16T00:47:31.227Z,21.45
2016-11-16T00:48:31.169Z,21.46
2016-11-16T00:49:31.095Z,21.43
2016-11-16T00:50:31.062Z,21.48
2016-11-16T00:51:30.973Z,21.42
2016-11-16T00:52:30.909Z,21.48
2016-11-16T00:53:30.849Z,21.46
2016-11-16T00:54:30.786Z,21.42
2016-11-16T00:55:30.727Z,21.42
2016-11-16T00:56:30.659Z,21.45
2016-11-16T00:57:30.593Z,21.45
2016-11-16T00:58:30.842Z,21.37
2016-11-16T00:59:30.467Z,21.45
2016-11-16T01:00:30.407Z,21.48
2016-11-16T01:01:30.351Z,21.46
2016-11-16T01:02:30.285Z,21.43
2016-11-16T01:03:30.520Z,21.46
2016-11-16T01:04:30.169Z,21.42
2016-11-16T01:05:30.094Z,21.39
2016-11-16T01:06:30.369Z,21.43
2016-11-16T01:07:30.268Z,21.4
2016-11-16T01:08:29.902Z,21.46
2016-11-16T01:09:29.840Z,21.45
2016-11-16T01:10:29.782Z,21.43
2016-11-16T01:11:29.714Z,21.43
2016-11-16T01:12:29.652Z,21.45
2016-11-16T01:13:29.905Z,21.43
2016-11-16T01:14:29.837Z,21.43
2016-11-16T01:15:29.461Z,21.39
2016-11-16T01:16:29.402Z,21.48
2016-11-16T01:17:29.369Z,21.45
2016-11-16T01:18:29.282Z,21.42
2016-11-16T01:19:29.209Z,21.46
2016-11-16T01:20:29.151Z,21.43
2016-11-16T01:21:29.085Z,21.48
2016-11-16T01:22:29.023Z,21.45
2016-11-16T01:23:28.961Z,21.4
2016-11-16T01:24:28.901Z,21.46
2016-11-16T01:25:28.831Z,21.39
2016-11-16T01:26:28.773Z,21.42
2016-11-16T01:27:28.705Z,21.43
2016-11-16T01:28:28.649Z,21.42
2016-11-16T01:29:28.581Z,21.42
2016-11-16T01:30:28.520Z,21.48
2016-11-16T01:31:28.493Z,21.45
2016-11-16T01:32:28.398Z,21.37
2016-11-16T01:33:28.332Z,21.45
2016-11-16T01:34:28.269Z,21.43
2016-11-16T01:35:28.204Z,21.46
2016-11-16T01:36:28.142Z,21.42
2016-11-16T01:37:28.078Z,21.42
2016-11-16T01:38:28.016Z,21.4
2016-11-16T01:39:27.953Z,21.42
2016-11-16T01:40:27.890Z,21.43
2016-11-16T01:41:27.827Z,21.46
2016-11-16T01:42:27.769Z,21.46
2016-11-16T01:43:28.009Z,21.48
2016-11-16T01:44:27.636Z,21.45
2016-11-16T01:45:27.573Z,21.37
2016-11-16T01:46:27.531Z,21.46
2016-11-16T01:47:27.448Z,21.45
2016-11-16T01:48:27.694Z,21.45
2016-11-16T01:49:27.322Z,21.48
2016-11-16T01:50:27.263Z,21.42
2016-11-16T01:51:27.203Z,21.45
2016-11-16T01:52:27.136Z,21.42
2016-11-16T01:53:27.070Z,21.39
2016-11-16T01:54:27.009Z,21.39
2016-11-16T01:55:26.952Z,21.4
2016-11-16T01:56:26.884Z,21.4
2016-11-16T01:57:26.822Z,21.39
2016-11-16T01:58:27.062Z,21.45
2016-11-16T01:59:26.693Z,21.42
2016-11-16T02:00:26.633Z,21.39
2016-11-16T02:01:26.571Z,21.46
2016-11-16T02:02:26.513Z,21.46
2016-11-16T02:03:26.476Z,21.4
2016-11-16T02:04:26.692Z,21.39
2016-11-16T02:05:26.529Z,21.42
2016-11-16T02:06:26.258Z,21.37
2016-11-16T02:07:26.398Z,21.42
2016-11-16T02:08:26.133Z,21.46
2016-11-16T02:09:26.064Z,21.46
2016-11-16T02:10:26.002Z,21.43
2016-11-16T02:11:25.941Z,21.37
2016-11-16T02:12:25.875Z,21.43
2016-11-16T02:13:25.814Z,21.4
2016-11-16T02:14:25.753Z,21.46
2016-11-16T02:15:25.719Z,21.42
2016-11-16T02:16:25.929Z,21.45
2016-11-16T02:17:25.563Z,21.43
2016-11-16T02:18:25.810Z,21.45
2016-11-16T02:19:25.438Z,21.37
2016-11-16T02:20:25.372Z,21.42
2016-11-16T02:21:25.309Z,21.43
2016-11-16T02:22:25.253Z,21.43
2016-11-16T02:23:25.185Z,21.42
2016-11-16T02:24:25.121Z,21.45
2016-11-16T02:25:25.066Z,21.46
2016-11-16T02:26:25.009Z,21.42
2016-11-16T02:27:25.283Z,21.37
2016-11-16T02:28:24.874Z,21.4
2016-11-16T02:29:24.806Z,21.46
2016-11-16T02:30:24.747Z,21.45
2016-11-16T02:31:24.679Z,21.43
2016-11-16T02:32:24.616Z,21.4
2016-11-16T02:33:24.556Z,21.46
2016-11-16T02:34:24.491Z,21.4
2016-11-16T02:35:24.430Z,21.4
2016-11-16T02:36:24.366Z,21.33
2016-11-16T02:37:24.609Z,21.36
2016-11-16T02:38:24.244Z,21.33
2016-11-16T02:39:24.176Z,21.35
2016-11-16T02:40:24.424Z,21.36
2016-11-16T02:41:24.360Z,21.3
2016-11-16T02:42:23.988Z,21.29
2016-11-16T02:43:23.924Z,21.32
2016-11-16T02:44:23.864Z,21.27
2016-11-16T02:45:23.797Z,21.32
2016-11-16T02:46:23.741Z,21.29
2016-11-16T02:47:23.670Z,21.29
2016-11-16T02:48:23.610Z,21.27
2016-11-16T02:49:23.546Z,21.27
2016-11-16T02:50:23.484Z,21.3
2016-11-16T02:51:23.420Z,21.22
2016-11-16T02:52:23.356Z,21.3
2016-11-16T02:53:23.290Z,21.25
2016-11-16T02:54:23.234Z,21.27
2016-11-16T02:55:23.167Z,21.3
2016-11-16T02:56:23.103Z,21.29
2016-11-16T02:57:23.040Z,21.29
2016-11-16T02:58:22.979Z,21.36
2016-11-16T02:59:22.923Z,21.29
2016-11-16T03:00:22.851Z,21.27
2016-11-16T03:01:22.789Z,21.35
2016-11-16T03:02:22.724Z,21.25
2016-11-16T03:03:22.662Z,21.29
2016-11-16T03:04:22.598Z,21.29
2016-11-16T03:05:22.537Z,21.3
2016-11-16T03:06:22.474Z,21.35
2016-11-16T03:07:22.410Z,21.27
2016-11-16T03:08:22.354Z,21.29
2016-11-16T03:09:22.586Z,21.3
2016-11-16T03:10:22.217Z,21.3
2016-11-16T03:11:22.153Z,21.3
2016-11-16T03:12:22.090Z,21.3
2016-11-16T03:13:22.336Z,21.3
2016-11-16T03:14:21.963Z,21.27
2016-11-16T03:15:21.898Z,21.3
2016-11-16T03:16:21.842Z,21.27
2016-11-16T03:17:21.785Z,21.36
2016-11-16T03:18:21.714Z,21.3
2016-11-16T03:19:21.653Z,21.39
2016-11-16T03:20:21.589Z,21.3
2016-11-16T03:21:21.527Z,21.32
2016-11-16T03:22:21.769Z,21.33
2016-11-16T03:23:21.393Z,21.32
2016-11-16T03:24:21.338Z,21.37
2016-11-16T03:25:21.274Z,21.37
2016-11-16T03:26:21.211Z,21.25
2016-11-16T03:27:21.145Z,21.32
2016-11-16T03:28:21.088Z,21.35
2016-11-16T03:29:21.024Z,21.33
2016-11-16T03:30:20.959Z,21.27
2016-11-16T03:31:20.892Z,21.36
2016-11-16T03:32:20.834Z,21.37
2016-11-16T03:33:20.770Z,21.36
2016-11-16T03:34:20.701Z,21.36
2016-11-16T03:35:20.639Z,21.33
2016-11-16T03:36:20.583Z,21.35
2016-11-16T03:37:20.518Z,21.3
2016-11-16T03:38:20.450Z,21.35
2016-11-16T03:39:20.388Z,21.35
2016-11-16T03:40:20.329Z,21.32
2016-11-16T03:41:20.278Z,21.3
2016-11-16T03:42:20.199Z,21.33
2016-11-16T03:43:20.135Z,21.27
2016-11-16T03:44:20.073Z,21.36
2016-11-16T03:45:20.008Z,21.3
2016-11-16T03:46:19.946Z,21.37
2016-11-16T03:47:19.887Z,21.37
2016-11-16T03:48:19.828Z,21.25
2016-11-16T03:49:19.757Z,21.29
2016-11-16T03:50:19.806Z,21.37
2016-11-16T03:51:19.766Z,21.32
2016-11-16T03:52:19.984Z,21.3
2016-11-16T03:53:19.522Z,21.37
2016-11-16T03:54:19.525Z,21.3
2016-11-16T03:55:19.420Z,21.3
2016-11-16T03:56:19.328Z,21.29
2016-11-16T03:57:19.435Z,21.3
2016-11-16T03:58:19.200Z,21.3
2016-11-16T03:59:19.249Z,21.3
2016-11-16T04:00:19.126Z,21.3
2016-11-16T04:01:19.512Z,21.33
2016-11-16T04:02:18.940Z,21.29
2016-11-16T04:03:18.898Z,21.22
2016-11-16T04:04:18.834Z,21.3
2016-11-16T04:05:18.749Z,21.3
2016-11-16T04:06:18.691Z,21.25
2016-11-16T04:07:18.625Z,21.27
2016-11-16T04:08:18.561Z,21.3
2016-11-16T04:09:18.502Z,21.22
2016-11-16T04:10:18.743Z,21.27
2016-11-16T04:11:18.374Z,21.3
2016-11-16T04:12:18.335Z,21.33
2016-11-16T04:13:18.251Z,21.24
2016-11-16T04:14:18.183Z,21.21
2016-11-16T04:15:18.125Z,21.25
2016-11-16T04:16:18.056Z,21.24
2016-11-16T04:17:17.991Z,21.22
2016-11-16T04:18:17.932Z,21.33
2016-11-16T04:19:17.868Z,21.22
2016-11-16T04:20:17.806Z,21.24
2016-11-16T04:21:17.740Z,21.21
2016-11-16T04:22:17.681Z,21.21
2016-11-16T04:23:17.613Z,21.2
2016-11-16T04:24:17.556Z,21.21
2016-11-16T04:25:17.488Z,21.15
2016-11-16T04:26:17.733Z,21.12
2016-11-16T04:27:17.362Z,21.11
2016-11-16T04:28:17.301Z,21.15
2016-11-16T04:29:17.235Z,21.14
2016-11-16T04:30:17.474Z,21.09
2016-11-16T04:31:17.107Z,21.09
2016-11-16T04:32:17.054Z,21.15
2016-11-16T04:33:16.989Z,21.14
2016-11-16T04:34:16.924Z,21.14
2016-11-16T04:35:16.858Z,21.21
2016-11-16T04:36:16.795Z,21.2
2016-11-16T04:37:16.730Z,21.11
2016-11-16T04:38:16.668Z,21.14
2016-11-16T04:39:16.606Z,21.11
2016-11-16T04:40:16.538Z,21.17
2016-11-16T04:41:16.781Z,21.06
2016-11-16T04:42:16.419Z,21.14
2016-11-16T04:43:16.355Z,21.09
2016-11-16T04:44:16.290Z,21.02
2016-11-16T04:45:16.226Z,21
2016-11-16T04:46:16.161Z,21.09
2016-11-16T04:47:16.101Z,21.02
2016-11-16T04:48:16.036Z,21.09
2016-11-16T04:49:15.979Z,21.05
2016-11-16T04:50:15.915Z,21
2016-11-16T04:51:15.848Z,20.97
2016-11-16T04:52:15.783Z,21
2016-11-16T04:53:15.719Z,21
2016-11-16T04:54:15.662Z,20.96
2016-11-16T04:55:15.600Z,21
2016-11-16T04:56:15.541Z,20.95
2016-11-16T04:57:15.469Z,21.02
2016-11-16T04:58:15.405Z,21.05
2016-11-16T04:59:15.342Z,20.99
2016-11-16T05:00:15.282Z,21
2016-11-16T05:01:15.227Z,20.99
2016-11-16T05:02:15.153Z,20.96
2016-11-16T05:03:15.091Z,21.02
2016-11-16T05:04:15.054Z,21.02
2016-11-16T05:05:15.285Z,20.99
2016-11-16T05:06:14.902Z,20.96
2016-11-16T05:07:14.840Z,20.99
2016-11-16T05:08:14.772Z,20.99
2016-11-16T05:09:14.710Z,21.02
2016-11-16T05:10:14.646Z,21.05
2016-11-16T05:11:14.591Z,20.99
2016-11-16T05:12:14.523Z,20.92
2016-11-16T05:13:14.455Z,20.9
2016-11-16T05:14:14.394Z,20.97
2016-11-16T05:15:14.333Z,21.02
2016-11-16T05:16:14.269Z,21
2016-11-16T05:17:14.205Z,21.05
2016-11-16T05:18:14.143Z,21.06
2016-11-16T05:19:14.075Z,21.03
2016-11-16T05:20:14.042Z,21.11
2016-11-16T05:21:13.948Z,21.11
2016-11-16T05:22:13.891Z,21.11
2016-11-16T05:23:13.823Z,21.09
2016-11-16T05:24:13.763Z,21.12
2016-11-16T05:25:13.694Z,21.14
2016-11-16T05:26:13.632Z,21.12
2016-11-16T05:27:13.575Z,21.12
2016-11-16T05:28:13.814Z,21.12
2016-11-16T05:29:13.446Z,21.15
2016-11-16T05:30:13.393Z,21.15
2016-11-16T05:31:13.319Z,21.14
2016-11-16T05:32:13.264Z,21.17
2016-11-16T05:33:13.192Z,21.11
2016-11-16T05:34:13.175Z,21.17
2016-11-16T05:35:13.376Z,21.2
2016-11-16T05:36:13.002Z,21.14
2016-11-16T05:37:12.939Z,21.14
2016-11-16T05:38:12.874Z,21.17
2016-11-16T05:39:13.121Z,21.18
2016-11-16T05:40:12.750Z,21.22
2016-11-16T05:41:12.688Z,21.22
2016-11-16T05:42:12.637Z,21.25
2016-11-16T05:43:12.565Z,21.27
2016-11-16T05:44:12.507Z,21.2
2016-11-16T05:45:12.437Z,21.24
2016-11-16T05:46:12.377Z,21.32
2016-11-16T05:47:12.308Z,21.24
2016-11-16T05:48:12.257Z,21.33
2016-11-16T05:49:12.179Z,21.24
2016-11-16T05:50:12.132Z,21.25
2016-11-16T05:51:12.057Z,21.27
2016-11-16T05:52:11.994Z,21.3
2016-11-16T05:53:11.929Z,21.25
2016-11-16T05:54:11.874Z,21.24
2016-11-16T05:55:11.809Z,21.27
2016-11-16T05:56:11.745Z,21.29
2016-11-16T05:57:11.679Z,21.29
2016-11-16T05:58:11.621Z,21.25
2016-11-16T05:59:11.558Z,21.27
2016-11-16T06:00:11.497Z,21.27
2016-11-16T06:01:11.428Z,21.29
2016-11-16T06:02:11.368Z,21.3
2016-11-16T06:03:11.307Z,21.35
2016-11-16T06:04:11.236Z,21.32
2016-11-16T06:05:11.183Z,21.33
2016-11-16T06:06:11.116Z,21.3
2016-11-16T06:07:11.107Z,21.3
2016-11-16T06:08:11.301Z,21.27
2016-11-16T06:09:10.927Z,21.35
2016-11-16T06:10:10.865Z,21.3
2016-11-16T06:11:10.803Z,21.3
2016-11-16T06:12:10.734Z,21.32
2016-11-16T06:13:10.681Z,21.35
2016-11-16T06:14:10.611Z,21.3
2016-11-16T06:15:10.546Z,21.27
2016-11-16T06:16:10.481Z,21.35
2016-11-16T06:17:10.421Z,21.37
2016-11-16T06:18:10.355Z,21.35
2016-11-16T06:19:10.297Z,21.37
2016-11-16T06:20:10.232Z,21.32
2016-11-16T06:21:10.173Z,21.32
2016-11-16T06:22:10.106Z,21.32
2016-11-16T06:23:10.048Z,21.32
2016-11-16T06:24:09.987Z,21.36
2016-11-16T06:25:09.923Z,21.37
2016-11-16T06:26:09.857Z,21.36
2016-11-16T06:27:09.791Z,21.37
2016-11-16T06:28:09.735Z,21.35
2016-11-16T06:29:09.674Z,21.37
2016-11-16T06:30:09.608Z,21.35
2016-11-16T06:31:09.542Z,21.37
2016-11-16T06:32:09.478Z,21.37
2016-11-16T06:33:09.423Z,21.4
2016-11-16T06:34:09.368Z,21.37
2016-11-16T06:35:09.290Z,21.37
2016-11-16T06:36:09.234Z,21.42
2016-11-16T06:37:09.477Z,21.39
2016-11-16T06:38:09.107Z,21.35
2016-11-16T06:39:09.047Z,21.45
2016-11-16T06:40:08.979Z,21.43
2016-11-16T06:41:08.914Z,21.46
2016-11-16T06:42:08.864Z,21.46
2016-11-16T06:43:08.813Z,21.42
2016-11-16T06:44:08.728Z,21.37
2016-11-16T06:45:08.663Z,21.45
2016-11-16T06:46:08.605Z,21.42
2016-11-16T06:47:08.537Z,21.42
2016-11-16T06:48:08.472Z,21.46
2016-11-16T06:49:08.412Z,21.39
2016-11-16T06:50:08.347Z,21.45
2016-11-16T06:51:08.287Z,21.46
2016-11-16T06:52:08.225Z,21.46
2016-11-16T06:53:08.166Z,21.39
2016-11-16T06:54:08.097Z,21.42
2016-11-16T06:55:08.032Z,21.43
2016-11-16T06:56:07.973Z,21.37
2016-11-16T06:57:07.914Z,21.43
2016-11-16T06:58:07.846Z,21.43
2016-11-16T06:59:08.097Z,21.43
2016-11-16T07:00:07.723Z,21.45
2016-11-16T07:01:07.658Z,21.45
2016-11-16T07:02:07.604Z,21.42
2016-11-16T07:03:07.537Z,21.45
2016-11-16T07:04:07.481Z,21.57
2016-11-16T07:05:07.404Z,21.46
2016-11-16T07:06:07.349Z,21.48
2016-11-16T07:07:07.290Z,21.5
2016-11-16T07:08:07.224Z,21.51
2016-11-16T07:09:07.159Z,21.54
2016-11-16T07:10:07.098Z,21.5
2016-11-16T07:11:07.032Z,21.46
2016-11-16T07:12:06.969Z,21.51
2016-11-16T07:13:06.904Z,21.54
2016-11-16T07:14:06.846Z,21.5
2016-11-16T07:15:06.783Z,21.46
2016-11-16T07:16:06.720Z,21.51
2016-11-16T07:17:06.652Z,21.51
2016-11-16T07:18:06.589Z,21.57
2016-11-16T07:19:06.532Z,21.46
2016-11-16T07:20:06.464Z,21.54
2016-11-16T07:21:06.408Z,21.5
2016-11-16T07:22:06.346Z,21.45
2016-11-16T07:23:06.293Z,21.55
2016-11-16T07:24:06.216Z,21.54
2016-11-16T07:25:06.164Z,21.52
2016-11-16T07:26:06.109Z,21.51
2016-11-16T07:27:06.030Z,21.55
2016-11-16T07:28:05.967Z,21.48
2016-11-16T07:29:05.912Z,21.54
2016-11-16T07:30:05.839Z,21.51
2016-11-16T07:31:05.778Z,21.51
2016-11-16T07:32:05.722Z,21.58
2016-11-16T07:33:05.646Z,21.6
2016-11-16T07:34:05.590Z,21.51
2016-11-16T07:35:05.542Z,21.5
2016-11-16T07:36:05.503Z,21.48
2016-11-16T07:37:05.415Z,21.5
2016-11-16T07:38:05.381Z,21.58
2016-11-16T07:39:05.281Z,21.58
2016-11-16T07:40:05.235Z,21.51
2016-11-16T07:41:05.159Z,21.46
2016-11-16T07:42:05.123Z,21.5
2016-11-16T07:43:05.058Z,21.48
2016-11-16T07:44:04.982Z,21.61
2016-11-16T07:45:04.917Z,21.43
2016-11-16T07:46:04.843Z,21.51
2016-11-16T07:47:04.776Z,21.46
2016-11-16T07:48:04.755Z,21.54
2016-11-16T07:49:04.655Z,21.5
2016-11-16T07:50:04.596Z,21.51
2016-11-16T07:51:04.537Z,21.48
2016-11-16T07:52:04.483Z,21.48
2016-11-16T07:53:04.463Z,21.46
2016-11-16T07:54:04.351Z,21.42
2016-11-16T07:55:04.674Z,21.48
2016-11-16T07:56:04.266Z,21.45
2016-11-16T07:57:04.167Z,21.4
2016-11-16T07:58:04.120Z,21.45
2016-11-16T07:59:04.031Z,21.45
2016-11-16T08:00:03.965Z,21.43
2016-11-16T08:01:03.924Z,21.45
2016-11-16T08:02:03.828Z,21.42
2016-11-16T08:03:03.907Z,21.4
2016-11-16T08:04:03.788Z,21.52
2016-11-16T08:05:03.743Z,21.46
2016-11-16T08:06:03.600Z,21.51
2016-11-16T08:07:03.589Z,21.46
2016-11-16T08:08:03.611Z,21.45
2016-11-16T08:09:03.470Z,21.43
2016-11-16T08:10:03.458Z,21.42
2016-11-16T08:11:03.345Z,21.35
2016-11-16T08:12:03.523Z,21.37
2016-11-16T08:13:03.163Z,21.42
2016-11-16T08:14:03.157Z,21.32
2016-11-16T08:15:03.033Z,21.46
2016-11-16T08:16:03.022Z,21.43
2016-11-16T08:17:03.215Z,21.37
2016-11-16T08:18:02.859Z,21.39
2016-11-16T08:19:02.763Z,21.46
2016-11-16T08:20:02.716Z,21.37
2016-11-16T08:21:02.667Z,21.39
2016-11-16T08:22:02.619Z,21.36
2016-11-16T08:23:02.549Z,21.4
2016-11-16T08:24:02.513Z,21.35
2016-11-16T08:25:02.388Z,21.36
2016-11-16T08:26:02.324Z,21.35
2016-11-16T08:27:02.287Z,21.35
2016-11-16T08:28:02.219Z,21.37
2016-11-16T08:29:02.343Z,21.33
2016-11-16T08:30:02.461Z,21.37
2016-11-16T08:31:02.189Z,21.3
2016-11-16T08:32:02.033Z,21.4
2016-11-16T08:33:01.909Z,21.29
2016-11-16T08:34:01.866Z,21.3
2016-11-16T08:35:01.805Z,21.3
2016-11-16T08:36:01.705Z,21.36
2016-11-16T08:37:01.722Z,21.29
2016-11-16T08:38:01.718Z,21.35
2016-11-16T08:39:01.636Z,21.25
2016-11-16T08:40:01.499Z,21.3
2016-11-16T08:41:01.724Z,21.25
2016-11-16T08:42:01.327Z,21.25
2016-11-16T08:43:01.311Z,21.27
2016-11-16T08:44:01.200Z,21.24
2016-11-16T08:45:01.163Z,21.32
2016-11-16T08:46:01.085Z,21.32
2016-11-16T08:47:01.058Z,21.22
2016-11-16T08:48:00.984Z,21.2
2016-11-16T08:49:00.936Z,21.24
2016-11-16T08:50:01.192Z,21.2
2016-11-16T08:51:00.839Z,21.22
2016-11-16T08:52:00.824Z,21.24
2016-11-16T08:53:00.654Z,21.2
2016-11-16T08:54:00.655Z,21.25
2016-11-16T08:55:00.726Z,21.2
2016-11-16T08:56:00.525Z,21.25
2016-11-16T08:57:00.395Z,21.22
2016-11-16T08:58:00.330Z,21.24
2016-11-16T08:59:00.292Z,21.18
2016-11-16T09:00:00.272Z,21.21
2016-11-16T09:01:00.197Z,21.22
2016-11-16T09:02:00.073Z,21.22
2016-11-16T09:03:00.458Z,21.25
2016-11-16T09:03:59.991Z,21.25
2016-11-16T09:04:59.959Z,21.25
2016-11-16T09:06:00.056Z,21.24
2016-11-16T09:06:59.978Z,21.35
2016-11-16T09:08:00.273Z,21.25
2016-11-16T09:08:59.784Z,21.32
2016-11-16T09:09:59.798Z,21.3
2016-11-16T09:10:59.820Z,21.3
2016-11-16T09:11:59.682Z,21.24
2016-11-16T09:12:59.574Z,21.27
2016-11-16T09:13:59.976Z,21.27
2016-11-16T09:14:59.822Z,21.29
2016-11-16T09:15:59.433Z,21.3
2016-11-16T09:16:59.360Z,21.3
2016-11-16T09:17:59.247Z,21.37
2016-11-16T09:18:59.437Z,21.27
2016-11-16T09:19:59.099Z,21.37
2016-11-16T09:20:59.104Z,21.35
2016-11-16T09:21:59.036Z,21.36
2016-11-16T09:22:59.013Z,21.33
2016-11-16T09:23:59.057Z,21.27
2016-11-16T09:24:59.013Z,21.35
2016-11-16T09:25:58.692Z,21.24
2016-11-16T09:26:58.548Z,21.35
2016-11-16T09:27:58.535Z,21.27
2016-11-16T09:28:58.807Z,21.37
2016-11-16T09:29:58.478Z,21.35
2016-11-16T09:30:58.584Z,21.25
2016-11-16T09:31:58.394Z,21.3
2016-11-16T09:32:58.912Z,21.37
2016-11-16T09:33:58.157Z,21.37
2016-11-16T09:34:58.402Z,21.25
2016-11-16T09:35:58.123Z,21.32
2016-11-16T09:36:57.970Z,21.29
2016-11-16T09:37:57.956Z,21.32
2016-11-16T09:38:57.919Z,21.25
2016-11-16T09:39:57.731Z,21.27
2016-11-16T09:40:57.904Z,21.29
2016-11-16T09:41:57.826Z,21.3
2016-11-16T09:42:57.575Z,21.29
2016-11-16T09:43:57.415Z,21.25
2016-11-16T09:44:57.546Z,21.27
2016-11-16T09:45:57.751Z,21.32
2016-11-16T09:46:57.391Z,21.36
2016-11-16T09:47:57.347Z,21.32
2016-11-16T09:48:57.671Z,21.29
2016-11-16T09:49:57.205Z,21.33
2016-11-16T09:50:57.211Z,21.3
2016-11-16T09:51:57.099Z,21.3
2016-11-16T09:52:57.028Z,21.36
2016-11-16T09:53:56.964Z,21.35
2016-11-16T09:54:56.900Z,21.32
2016-11-16T09:55:57.203Z,21.25
2016-11-16T09:56:57.508Z,21.32
2016-11-16T09:57:56.594Z,21.35
2016-11-16T09:58:56.625Z,21.29
2016-11-16T09:59:56.561Z,21.36
2016-11-16T10:00:56.538Z,21.35
2016-11-16T10:01:56.433Z,21.32
2016-11-16T10:02:56.369Z,21.3
2016-11-16T10:03:56.256Z,21.3
2016-11-16T10:04:56.563Z,21.35
2016-11-16T10:05:56.506Z,21.3
2016-11-16T10:06:56.221Z,21.27
2016-11-16T10:07:56.526Z,21.27
2016-11-16T10:08:56.020Z,21.29
2016-11-16T10:09:55.945Z,21.27
2016-11-16T10:10:55.758Z,21.3
2016-11-16T10:11:55.833Z,21.35
2016-11-16T10:12:55.753Z,21.29
2016-11-16T10:13:55.696Z,21.25
2016-11-16T10:14:55.513Z,21.3
2016-11-16T10:15:55.444Z,21.3
2016-11-16T10:16:55.454Z,21.3
2016-11-16T10:17:55.324Z,21.27
2016-11-16T10:18:55.231Z,21.3
2016-11-16T10:19:55.327Z,21.27
2016-11-16T10:20:55.377Z,21.29
2016-11-16T10:21:55.086Z,21.25
2016-11-16T10:22:54.962Z,21.33
2016-11-16T10:23:54.943Z,21.27
2016-11-16T10:24:55.008Z,21.29
2016-11-16T10:25:54.956Z,21.29
2016-11-16T10:26:55.039Z,21.32
2016-11-16T10:27:54.809Z,21.32
2016-11-16T10:28:54.779Z,21.27
2016-11-16T10:29:54.703Z,21.24
2016-11-16T10:30:54.565Z,21.29
2016-11-16T10:31:54.554Z,21.27
2016-11-16T10:32:54.510Z,21.25
2016-11-16T10:33:55.043Z,21.25
2016-11-16T10:34:54.326Z,21.22
2016-11-16T10:35:54.371Z,21.18
2016-11-16T10:36:54.209Z,21.25
2016-11-16T10:37:54.058Z,21.25
2016-11-16T10:38:53.947Z,21.22
2016-11-16T10:39:53.922Z,21.24
2016-11-16T10:40:53.879Z,21.32
2016-11-16T10:41:53.877Z,21.25
2016-11-16T10:42:53.702Z,21.24
2016-11-16T10:43:53.743Z,21.22
2016-11-16T10:44:53.675Z,21.24
2016-11-16T10:45:53.563Z,21.22
2016-11-16T10:46:53.619Z,21.33
2016-11-16T10:47:53.439Z,21.21
2016-11-16T10:48:53.385Z,21.22
2016-11-16T10:49:53.396Z,21.3
2016-11-16T10:50:53.271Z,21.22
2016-11-16T10:51:53.207Z,21.24
2016-11-16T10:52:53.136Z,21.25
2016-11-16T10:53:53.070Z,21.24
2016-11-16T10:54:53.345Z,21.3
2016-11-16T10:55:52.961Z,21.27
2016-11-16T10:56:52.886Z,21.35
2016-11-16T10:57:52.823Z,21.22
2016-11-16T10:58:52.753Z,21.3
2016-11-16T10:59:52.693Z,21.35
2016-11-16T11:00:52.948Z,21.22
2016-11-16T11:01:52.574Z,21.25
2016-11-16T11:02:52.503Z,21.24
2016-11-16T11:03:52.440Z,21.33
2016-11-16T11:04:52.383Z,21.24
2016-11-16T11:05:52.315Z,21.22
2016-11-16T11:06:52.257Z,21.18
2016-11-16T11:07:52.193Z,21.22
2016-11-16T11:08:52.130Z,21.24
2016-11-16T11:09:52.075Z,21.24
2016-11-16T11:10:52.003Z,21.22
2016-11-16T11:11:51.966Z,21.22
2016-11-16T11:12:51.875Z,21.29
2016-11-16T11:13:51.816Z,21.3
2016-11-16T11:14:52.133Z,21.25
2016-11-16T11:15:51.690Z,21.22
2016-11-16T11:16:52.003Z,21.21
2016-11-16T11:17:51.566Z,21.24
2016-11-16T11:18:51.497Z,21.29
2016-11-16T11:19:51.768Z,21.25
2016-11-16T11:20:51.372Z,21.21
2016-11-16T11:21:51.310Z,21.22
2016-11-16T11:24:05.032Z,21.29
2016-11-16T13:13:24.323Z,21.4
2016-11-16T13:14:24.127Z,21.4
2016-11-16T13:15:24.066Z,21.42
2016-11-16T13:16:24.154Z,21.43
2016-11-16T13:17:23.928Z,21.42
2016-11-16T13:18:23.858Z,21.43
2016-11-16T13:19:23.801Z,21.5
2016-11-16T13:20:24.055Z,21.43
2016-11-16T13:21:23.883Z,21.5
2016-11-16T13:22:23.794Z,21.48
2016-11-16T13:23:23.546Z,21.52
2016-11-16T13:24:23.488Z,21.52
2016-11-16T13:25:23.427Z,21.55
2016-11-16T13:26:23.363Z,21.52
2016-11-16T13:27:23.332Z,21.5
2016-11-16T13:28:23.231Z,21.51
2016-11-16T13:29:23.172Z,21.62
2016-11-16T13:30:23.110Z,21.64
2016-11-16T13:31:23.046Z,21.54
2016-11-16T13:32:22.988Z,21.62
2016-11-16T13:33:22.920Z,21.64
2016-11-16T13:34:22.869Z,21.82
2016-11-16T13:35:22.791Z,21.67
2016-11-16T13:36:22.739Z,21.73
2016-11-16T13:37:22.672Z,21.77
2016-11-16T13:38:22.608Z,21.82
2016-11-16T13:39:22.542Z,21.82
2016-11-16T13:40:22.479Z,21.75
2016-11-16T13:41:22.418Z,21.93
2016-11-16T13:42:22.360Z,21.98
2016-11-16T13:43:22.612Z,21.95
2016-11-16T13:44:22.233Z,22.04
2016-11-16T13:45:22.167Z,22
2016-11-16T13:46:22.103Z,22.07
2016-11-16T13:47:22.046Z,22.1
2016-11-16T13:48:21.980Z,22.11
2016-11-16T13:49:21.918Z,22.15
2016-11-16T13:50:21.858Z,22.2
2016-11-16T13:51:21.798Z,22.33
2016-11-16T13:52:21.766Z,22.3
2016-11-16T13:53:21.681Z,22.29
2016-11-16T13:54:21.610Z,22.22
2016-11-16T13:55:21.551Z,22.32
2016-11-16T13:56:21.481Z,22.36
2016-11-16T13:57:21.426Z,22.36
2016-11-16T13:58:21.361Z,22.39
2016-11-16T13:59:21.940Z,22.53
2016-11-16T14:00:21.437Z,22.47
2016-11-16T14:01:21.173Z,22.45
2016-11-16T14:02:21.116Z,22.51
2016-11-16T14:03:21.593Z,22.57
2016-11-16T14:04:21.243Z,22.59
2016-11-16T14:05:21.168Z,22.62
2016-11-16T14:06:20.894Z,22.68
2016-11-16T14:07:20.801Z,22.68
2016-11-16T14:08:20.972Z,22.63
2016-11-16T14:09:20.998Z,22.75
2016-11-16T14:10:20.623Z,22.78
2016-11-16T14:11:20.552Z,22.76
2016-11-16T14:12:20.499Z,22.78
2016-11-16T14:13:20.427Z,22.84
2016-11-16T14:14:20.366Z,22.83
2016-11-16T14:15:20.627Z,22.81
2016-11-16T14:16:20.245Z,22.81
2016-11-16T14:17:20.191Z,22.93
2016-11-16T14:18:20.121Z,22.9
2016-11-16T14:19:20.082Z,22.94
2016-11-16T14:20:19.998Z,23.03
2016-11-16T14:21:19.943Z,23.06
2016-11-16T14:22:19.884Z,23.08
2016-11-16T14:23:19.812Z,23.09
2016-11-16T14:24:19.755Z,23.15
2016-11-16T14:25:19.699Z,23.13
2016-11-16T14:26:19.629Z,23.23
2016-11-16T14:27:19.571Z,23.24
2016-11-16T14:28:19.506Z,23.21
2016-11-16T14:29:19.444Z,23.27
2016-11-16T14:30:19.382Z,23.28
2016-11-16T14:31:19.527Z,23.34
2016-11-16T14:32:19.267Z,23.32
2016-11-16T14:33:19.199Z,23.36
2016-11-16T14:34:19.138Z,23.44
2016-11-16T14:35:19.088Z,23.41
2016-11-16T14:36:19.018Z,23.54
2016-11-16T14:37:18.956Z,23.59
2016-11-16T14:38:19.119Z,23.5
2016-11-16T14:39:18.833Z,23.56
2016-11-16T14:40:18.768Z,23.62
2016-11-16T14:41:18.706Z,23.56
2016-11-16T14:42:18.648Z,23.62
2016-11-16T14:43:18.640Z,23.71
2016-11-16T14:44:18.531Z,23.69
2016-11-16T14:45:18.530Z,23.76
2016-11-16T14:46:18.412Z,23.84